Weather at Wormid Airport

Public forecast

Using degrees Fahrenheit for public forecast. Weather courtesy of forecast.io.

Closest aviation weather report (METAR) to Wormid Airport

Closest report is Laurence G Hanscom Field, 14.0 nm (25.9 km) NE. Retrieved 2020/10/25 12:51 UTC (23 minutes ago):

KBED 251251Z 33004KT 10SM BKN035 06/01 A3024 RMK AO2 SLP253 T00560006

Closest aviation forecast (TAF) to Wormid Airport

Closest forecast is Laurence G Hanscom Field, 14.0 nm (25.9 km) NE. Retrieved 2020/10/25 12:34 UTC (40 minutes ago):

TAF KBED 251132Z 2512/2612 35005KT P6SM BKN150 FM251700 04005KT P6SM BKN150 FM260600 07004KT 6SM BR VCSH OVC045 FM260800 08004KT 6SM BR VCSH OVC030 FM260900 08005KT 5SM -DZ BR VCSH OVC020 FM261000 08004KT 5SM -DZ BR VCSH OVC015